createdAt,value
2019-02-05T00:01:37.964Z,5.20
2019-02-05T00:04:07.710Z,5.30
2019-02-05T00:06:37.485Z,4.77
2019-02-05T00:09:08.229Z,5.47
2019-02-05T00:11:37.937Z,5.40
2019-02-05T00:14:08.097Z,4.93
2019-02-05T00:16:38.212Z,5.30
2019-02-05T00:19:07.838Z,5.20
2019-02-05T00:21:37.611Z,4.70
2019-02-05T00:24:07.350Z,5.67
2019-02-05T00:26:37.134Z,5.13
2019-02-05T00:29:06.974Z,5.00
2019-02-05T00:31:36.989Z,4.67
2019-02-05T00:34:06.656Z,4.90
2019-02-05T00:36:36.405Z,5.10
2019-02-05T00:39:07.998Z,5.23
2019-02-05T00:41:37.622Z,5.47
2019-02-05T00:44:07.682Z,5.20
2019-02-05T00:46:37.436Z,4.90
2019-02-05T00:49:07.198Z,5.30
2019-02-05T00:51:36.979Z,4.93
2019-02-05T00:54:07.031Z,4.77
2019-02-05T00:56:36.734Z,5.33
2019-02-05T00:59:06.516Z,5.30
2019-02-05T01:01:36.287Z,5.03
2019-02-05T01:04:25.397Z,4.57
2019-02-05T01:06:55.451Z,5.40
2019-02-05T01:09:25.199Z,5.10
2019-02-05T01:11:55.173Z,5.00
2019-02-05T01:14:24.882Z,4.83
2019-02-05T01:16:54.903Z,4.87
2019-02-05T01:19:24.594Z,4.40
2019-02-05T01:21:54.363Z,4.60
2019-02-05T01:24:24.474Z,5.10
2019-02-05T01:26:54.204Z,5.37
2019-02-05T01:29:24.271Z,4.93
2019-02-05T01:31:53.891Z,4.77
2019-02-05T01:34:23.750Z,5.57
2019-02-05T01:36:53.439Z,5.10
2019-02-05T01:39:23.099Z,4.73
2019-02-05T01:41:52.765Z,4.67
2019-02-05T01:44:22.543Z,5.40
2019-02-05T01:46:52.153Z,5.00
2019-02-05T01:49:21.883Z,4.67
2019-02-05T01:51:51.863Z,5.00
2019-02-05T01:54:21.773Z,5.07
2019-02-05T01:56:51.441Z,4.70
2019-02-05T01:59:21.104Z,5.17
2019-02-05T02:01:50.800Z,5.10
2019-02-05T02:04:20.480Z,5.27
2019-02-05T02:06:50.929Z,5.30
2019-02-05T02:09:20.707Z,4.70
2019-02-05T02:11:50.508Z,4.67
2019-02-05T02:14:20.130Z,5.03
2019-02-05T02:16:49.829Z,5.00
2019-02-05T02:19:19.421Z,5.17
2019-02-05T02:21:49.555Z,4.70
2019-02-05T02:24:19.348Z,4.80
2019-02-05T02:26:52.093Z,4.67
2019-02-05T02:29:20.126Z,5.27
2019-02-05T02:31:50.181Z,4.60
2019-02-05T02:34:19.817Z,4.40
2019-02-05T02:36:49.616Z,4.57
2019-02-05T02:39:19.516Z,4.93
2019-02-05T02:41:49.228Z,4.27
2019-02-05T02:44:18.791Z,4.60
2019-02-05T02:46:48.434Z,4.47
2019-02-05T02:49:18.059Z,4.67
2019-02-05T02:51:47.773Z,4.70
2019-02-05T02:54:17.395Z,4.17
2019-02-05T02:56:47.167Z,4.10
2019-02-05T02:59:17.015Z,4.50
2019-02-05T03:01:47.001Z,4.47
2019-02-05T03:04:16.916Z,4.13
2019-02-05T03:06:46.588Z,4.43
2019-02-05T03:09:16.311Z,4.47
2019-02-05T03:11:46.003Z,4.63
2019-02-05T03:14:15.650Z,4.03
2019-02-05T03:16:45.670Z,4.27
2019-02-05T03:19:15.329Z,4.60
2019-02-05T03:21:45.452Z,4.23
2019-02-05T03:24:15.419Z,4.27
2019-02-05T03:26:45.356Z,3.93
2019-02-05T03:29:15.037Z,4.43
2019-02-05T03:31:44.683Z,4.60
2019-02-05T03:34:14.280Z,4.00
2019-02-05T03:36:44.038Z,4.00
2019-02-05T03:39:13.704Z,3.90
2019-02-05T03:41:43.493Z,3.97
2019-02-05T03:44:13.275Z,4.10
2019-02-05T03:46:43.161Z,4.00
2019-02-05T03:49:13.202Z,4.00
2019-02-05T03:51:45.885Z,3.80
2019-02-05T03:54:21.760Z,3.80
2019-02-05T03:57:09.400Z,3.67
2019-02-05T03:59:53.694Z,3.83
2019-02-05T04:02:50.082Z,4.00
2019-02-05T04:05:35.122Z,3.93
2019-02-05T04:08:32.266Z,3.70
2019-02-05T04:11:19.177Z,3.90
2019-02-05T04:14:23.424Z,3.60
2019-02-05T04:17:04.913Z,3.57
2019-02-05T04:19:52.641Z,4.43
2019-02-05T04:22:34.393Z,4.10
2019-02-05T04:25:22.191Z,4.27
2019-02-05T04:28:07.347Z,4.27
2019-02-05T04:30:43.094Z,4.03
2019-02-05T04:33:27.655Z,3.77
2019-02-05T04:36:27.748Z,4.07
2019-02-05T04:39:20.198Z,4.20
2019-02-05T04:42:08.156Z,3.90
2019-02-05T04:45:11.879Z,3.90
2019-02-05T04:48:02.859Z,4.00
2019-02-05T04:50:50.714Z,3.97
2019-02-05T04:53:26.199Z,4.23
2019-02-05T04:56:04.681Z,4.07
2019-02-05T04:58:40.615Z,3.87
2019-02-05T05:01:22.139Z,3.70
2019-02-05T05:04:10.056Z,4.43
2019-02-05T05:06:48.903Z,3.90
2019-02-05T05:09:22.806Z,4.00
2019-02-05T05:11:52.496Z,4.00
2019-02-05T05:14:22.162Z,4.27
2019-02-05T05:16:51.940Z,4.50
2019-02-05T05:19:22.639Z,4.30
2019-02-05T05:21:52.446Z,4.37
2019-02-05T05:24:22.208Z,3.93
2019-02-05T05:26:52.284Z,4.33
2019-02-05T05:29:22.236Z,4.13
2019-02-05T05:31:52.731Z,3.87
2019-02-05T05:34:22.821Z,4.23
2019-02-05T05:36:51.701Z,4.00
2019-02-05T05:39:21.751Z,4.30
2019-02-05T05:41:51.552Z,4.53
2019-02-05T05:44:21.146Z,4.50
2019-02-05T05:46:50.888Z,3.63
2019-02-05T05:49:20.987Z,4.87
2019-02-05T05:51:50.741Z,4.50
2019-02-05T05:54:20.510Z,3.93
2019-02-05T05:56:50.330Z,4.70
2019-02-05T05:59:20.157Z,3.97
2019-02-05T06:01:50.163Z,3.97
2019-02-05T06:04:19.925Z,4.40
2019-02-05T06:06:49.630Z,4.27
2019-02-05T06:09:19.338Z,4.40
2019-02-05T06:11:48.949Z,4.33
2019-02-05T06:14:18.788Z,4.20
2019-02-05T06:16:48.583Z,4.00
2019-02-05T06:19:18.487Z,4.00
2019-02-05T06:21:48.332Z,3.70
2019-02-05T06:24:18.194Z,4.17
2019-02-05T06:26:48.029Z,3.93
2019-02-05T06:29:17.914Z,4.23
2019-02-05T06:31:47.843Z,3.80
2019-02-05T06:34:17.665Z,4.50
2019-02-05T06:36:47.593Z,4.20
2019-02-05T06:39:17.477Z,4.33
2019-02-05T06:41:47.456Z,4.20
2019-02-05T06:44:17.344Z,4.53
2019-02-05T06:46:47.208Z,4.57
2019-02-05T06:49:16.955Z,4.83
2019-02-05T06:51:47.328Z,3.10
2019-02-05T06:54:17.033Z,4.30
2019-02-05T06:56:46.765Z,5.33
2019-02-05T06:59:16.448Z,4.00
2019-02-05T07:01:46.275Z,4.90
2019-02-05T07:04:16.387Z,5.07
2019-02-05T07:06:46.282Z,4.43
2019-02-05T07:09:16.426Z,4.80
2019-02-05T07:11:46.065Z,4.60
2019-02-05T07:14:15.855Z,4.80
2019-02-05T07:16:45.587Z,4.80
2019-02-05T07:19:15.339Z,4.90
2019-02-05T07:21:45.338Z,4.87
2019-02-05T07:24:15.195Z,4.70
2019-02-05T07:26:44.864Z,4.57
2019-02-05T07:29:14.607Z,4.50
2019-02-05T07:31:44.379Z,5.20
2019-02-05T07:34:14.105Z,4.97
2019-02-05T07:36:43.886Z,4.83
2019-02-05T07:39:13.606Z,4.80
2019-02-05T07:41:43.322Z,3.30
2019-02-05T07:44:13.058Z,2.97
2019-02-05T07:46:42.834Z,3.17
2019-02-05T07:49:12.565Z,3.20
2019-02-05T07:51:42.248Z,3.10
2019-02-05T07:54:12.340Z,4.43
2019-02-05T07:56:42.136Z,3.20
2019-02-05T07:59:11.767Z,2.80
2019-02-05T08:01:41.514Z,3.03
2019-02-05T08:04:11.171Z,3.77
2019-02-05T08:06:40.966Z,3.50
2019-02-05T08:09:11.030Z,3.00
2019-02-05T08:11:41.500Z,3.00
2019-02-05T08:14:11.471Z,2.97
2019-02-05T08:16:41.123Z,3.13
2019-02-05T08:19:10.904Z,2.73
2019-02-05T08:21:40.695Z,3.00
2019-02-05T08:24:10.484Z,3.10
2019-02-05T08:26:40.781Z,3.00
2019-02-05T08:29:21.150Z,3.60
2019-02-05T08:31:42.466Z,3.13
2019-02-05T08:34:12.478Z,2.97
2019-02-05T08:36:42.419Z,3.77
2019-02-05T08:39:12.230Z,3.80
2019-02-05T08:41:41.999Z,3.70
2019-02-05T08:44:12.043Z,4.30
2019-02-05T08:46:41.836Z,4.73
2019-02-05T08:49:11.663Z,4.63
2019-02-05T08:51:41.306Z,4.70
2019-02-05T08:54:11.310Z,5.00
2019-02-05T08:56:41.158Z,5.47
2019-02-05T08:59:11.174Z,5.77
2019-02-05T09:01:41.416Z,6.33
2019-02-05T09:04:11.236Z,5.30
2019-02-05T09:06:40.926Z,6.37
2019-02-05T09:09:10.693Z,5.33
2019-02-05T09:11:40.478Z,6.60
2019-02-05T09:14:12.284Z,6.10
2019-02-05T09:16:41.491Z,6.20
2019-02-05T09:19:11.749Z,5.73
2019-02-05T09:21:41.491Z,6.20
2019-02-05T09:24:11.220Z,6.07
2019-02-05T09:26:40.883Z,5.57
2019-02-05T09:29:10.631Z,5.80
2019-02-05T09:31:40.732Z,6.07
2019-02-05T09:34:10.460Z,6.27
2019-02-05T09:36:40.565Z,6.80
2019-02-05T09:39:10.328Z,6.07
2019-02-05T09:41:40.032Z,6.57
2019-02-05T09:44:09.791Z,5.87
2019-02-05T09:46:39.499Z,6.13
2019-02-05T09:49:09.323Z,6.30
2019-02-05T09:51:39.053Z,6.30
2019-02-05T09:54:08.799Z,6.60
2019-02-05T09:56:38.500Z,6.10
2019-02-05T09:59:08.668Z,6.00
2019-02-05T10:01:38.491Z,6.27
2019-02-05T10:04:08.681Z,6.07
2019-02-05T10:06:38.471Z,6.27
2019-02-05T10:09:08.741Z,6.00
2019-02-05T10:11:38.638Z,6.77
2019-02-05T10:14:08.776Z,6.30
2019-02-05T10:16:40.538Z,5.87
2019-02-05T10:19:10.819Z,6.30
2019-02-05T10:21:41.078Z,5.90
2019-02-05T10:24:10.858Z,6.00
2019-02-05T10:26:40.614Z,5.90
2019-02-05T10:29:10.303Z,5.97
2019-02-05T10:31:40.081Z,6.40
2019-02-05T10:34:10.135Z,5.80
2019-02-05T10:36:39.922Z,5.67
2019-02-05T10:39:10.304Z,6.30
2019-02-05T10:41:40.002Z,6.03
2019-02-05T10:44:09.803Z,6.00
2019-02-05T10:46:40.055Z,6.73
2019-02-05T10:49:09.982Z,6.40
2019-02-05T10:51:39.679Z,7.23
2019-02-05T10:54:09.420Z,6.80
2019-02-05T10:56:39.466Z,5.80
2019-02-05T10:59:09.272Z,6.80
2019-02-05T11:01:39.009Z,5.80
2019-02-05T11:04:08.812Z,6.17
2019-02-05T11:06:38.817Z,6.53
2019-02-05T11:09:09.555Z,6.27
2019-02-05T11:11:39.380Z,6.30
2019-02-05T11:14:09.166Z,6.20
2019-02-05T11:16:39.041Z,6.70
2019-02-05T11:19:08.844Z,6.00
2019-02-05T11:21:38.996Z,6.40
2019-02-05T11:24:08.736Z,6.20
2019-02-05T11:26:38.500Z,6.10
2019-02-05T11:29:08.155Z,5.70
2019-02-05T11:31:37.957Z,5.90
2019-02-05T11:34:07.773Z,6.40
2019-02-05T11:36:37.432Z,5.90
2019-02-05T11:39:15.018Z,7.00
2019-02-05T11:41:44.918Z,6.40
2019-02-05T11:44:14.710Z,6.40
2019-02-05T11:46:44.502Z,6.37
2019-02-05T11:49:14.292Z,6.40
2019-02-05T11:51:44.406Z,6.97
2019-02-05T11:54:14.110Z,6.33
2019-02-05T11:56:43.870Z,7.10
2019-02-05T11:59:13.558Z,6.20
2019-02-05T12:01:43.302Z,6.40
2019-02-05T12:04:13.064Z,7.20
2019-02-05T12:06:42.853Z,6.50
2019-02-05T12:09:18.115Z,6.47
2019-02-05T12:11:47.916Z,7.17
2019-02-05T12:14:17.981Z,7.07
2019-02-05T12:16:47.726Z,7.07
2019-02-05T12:19:17.444Z,6.50
2019-02-05T12:21:47.357Z,6.80
2019-02-05T12:24:17.083Z,7.30
2019-02-05T12:26:46.878Z,6.53
2019-02-05T12:29:16.955Z,6.57
2019-02-05T12:31:46.883Z,6.57
2019-02-05T12:34:16.681Z,6.80
2019-02-05T12:36:46.468Z,6.30
2019-02-05T12:39:17.642Z,6.53
2019-02-05T12:41:47.470Z,6.50
2019-02-05T12:44:17.488Z,6.27
2019-02-05T12:46:47.193Z,6.70
2019-02-05T12:49:16.972Z,6.80
2019-02-05T12:51:46.840Z,6.60
2019-02-05T12:54:16.973Z,6.43
2019-02-05T12:56:46.775Z,7.20
2019-02-05T12:59:16.787Z,6.07
2019-02-05T13:01:46.837Z,6.60
2019-02-05T13:04:16.980Z,6.67
2019-02-05T13:06:46.810Z,6.50
2019-02-05T13:09:16.497Z,6.37
2019-02-05T13:11:46.552Z,6.90
2019-02-05T13:14:16.288Z,7.23
2019-02-05T13:16:45.948Z,6.77
2019-02-05T13:19:15.770Z,6.67
2019-02-05T13:21:45.871Z,6.40
2019-02-05T13:24:16.702Z,6.30
2019-02-05T13:26:46.830Z,6.50
2019-02-05T13:29:16.660Z,6.63
2019-02-05T13:31:46.350Z,6.97
2019-02-05T13:34:16.005Z,7.27
2019-02-05T13:36:46.035Z,7.43
2019-02-05T13:39:15.844Z,6.57
2019-02-05T13:41:45.563Z,7.10
2019-02-05T13:44:15.288Z,7.63
2019-02-05T13:46:45.016Z,6.93
2019-02-05T13:49:14.827Z,6.60
2019-02-05T13:51:44.495Z,6.80
2019-02-05T13:54:14.270Z,6.37
2019-02-05T13:56:44.055Z,6.70
2019-02-05T13:59:13.763Z,6.20
2019-02-05T14:01:44.679Z,6.00
2019-02-05T14:04:14.798Z,6.60
2019-02-05T14:06:44.847Z,5.90
2019-02-05T14:09:14.960Z,6.23
2019-02-05T14:11:44.815Z,4.20
2019-02-05T14:14:14.905Z,4.10
2019-02-05T14:16:44.748Z,5.00
2019-02-05T14:19:14.910Z,5.93
2019-02-05T14:21:44.728Z,6.03
2019-02-05T14:24:14.625Z,5.60
2019-02-05T14:26:44.528Z,6.07
2019-02-05T14:29:14.266Z,6.00
2019-02-05T14:31:44.040Z,6.20
2019-02-05T14:34:14.167Z,6.10
2019-02-05T14:36:44.033Z,6.20
2019-02-05T14:39:13.850Z,5.27
2019-02-05T14:41:43.629Z,6.20
2019-02-05T14:44:13.663Z,6.20
2019-02-05T14:46:43.430Z,6.00
2019-02-05T14:49:13.528Z,5.90
2019-02-05T14:51:43.341Z,5.70
2019-02-05T14:54:12.971Z,5.50
2019-02-05T14:56:42.607Z,6.30
2019-02-05T14:59:12.431Z,5.73
2019-02-05T15:01:43.488Z,5.50
2019-02-05T15:04:13.325Z,5.43
2019-02-05T15:06:43.116Z,5.70
2019-02-05T15:09:12.913Z,5.57
2019-02-05T15:11:42.644Z,5.37
2019-02-05T15:14:12.469Z,5.67
2019-02-05T15:16:42.494Z,5.87
2019-02-05T15:19:12.569Z,5.90
2019-02-05T15:21:42.382Z,5.23
2019-02-05T15:24:12.197Z,5.47
2019-02-05T15:26:41.916Z,5.90
2019-02-05T15:29:11.628Z,5.70
2019-02-05T15:31:41.446Z,5.97
2019-02-05T15:34:13.188Z,5.80
2019-02-05T15:36:43.469Z,6.07
2019-02-05T15:39:13.779Z,5.67
2019-02-05T15:41:43.615Z,5.70
2019-02-05T15:44:13.717Z,6.90
2019-02-05T15:46:43.783Z,5.47
2019-02-05T15:49:13.531Z,6.20
2019-02-05T15:51:43.604Z,5.53
2019-02-05T15:54:13.406Z,6.43
2019-02-05T15:56:43.141Z,6.47
2019-02-05T15:59:12.824Z,5.37
2019-02-05T16:01:42.593Z,5.50
2019-02-05T16:04:12.408Z,6.00
2019-02-05T16:06:42.213Z,6.10
2019-02-05T16:09:12.444Z,5.70
2019-02-05T16:11:42.613Z,5.63
2019-02-05T16:14:12.731Z,6.10
2019-02-05T16:16:42.913Z,5.73
2019-02-05T16:19:12.652Z,5.23
2019-02-05T16:21:42.384Z,5.60
2019-02-05T16:24:12.232Z,5.33
2019-02-05T16:26:42.024Z,5.90
2019-02-05T16:29:11.753Z,6.23
2019-02-05T16:31:41.432Z,6.10
2019-02-05T16:34:11.076Z,6.40
2019-02-05T16:36:40.668Z,6.67
2019-02-05T16:39:11.467Z,6.03
2019-02-05T16:41:41.295Z,5.83
2019-02-05T16:44:11.086Z,6.13
2019-02-05T16:46:41.109Z,5.73
2019-02-05T16:49:11.125Z,5.40
2019-02-05T16:51:40.966Z,5.60
2019-02-05T16:54:10.962Z,6.23
2019-02-05T16:56:41.091Z,6.37
2019-02-05T16:59:10.783Z,6.10
2019-02-05T17:01:40.906Z,6.00
2019-02-05T17:04:10.706Z,6.30
2019-02-05T17:06:40.531Z,5.87
2019-02-05T17:09:13.547Z,6.10
2019-02-05T17:11:43.323Z,6.47
2019-02-05T17:14:13.106Z,5.67
2019-02-05T17:16:43.157Z,6.30
2019-02-05T17:19:12.915Z,6.07
2019-02-05T17:21:42.624Z,6.40
2019-02-05T17:24:12.431Z,6.13
2019-02-05T17:26:42.223Z,5.40
2019-02-05T17:29:11.986Z,5.63
2019-02-05T17:31:41.802Z,5.60
2019-02-05T17:34:11.607Z,5.83
2019-02-05T17:36:41.294Z,5.77
2019-02-05T17:39:12.767Z,5.47
2019-02-05T17:41:43.038Z,3.17
2019-02-05T17:44:13.201Z,2.60
2019-02-05T17:46:43.230Z,2.80
2019-02-05T17:49:17.550Z,3.20
2019-02-05T17:51:51.188Z,3.70
2019-02-05T17:54:21.066Z,3.30
2019-02-05T17:56:51.288Z,3.70
2019-02-05T17:59:21.386Z,4.07
2019-02-05T18:01:51.504Z,3.50
2019-02-05T18:04:21.555Z,3.17
2019-02-05T18:06:51.737Z,3.40
2019-02-05T18:09:22.169Z,3.47
2019-02-05T18:11:52.340Z,3.97
2019-02-05T18:14:22.736Z,3.23
2019-02-05T18:16:53.022Z,3.30
2019-02-05T18:19:23.486Z,3.43
2019-02-05T18:21:53.647Z,4.60
2019-02-05T18:24:23.712Z,6.70
2019-02-05T18:26:53.421Z,7.53
2019-02-05T18:29:23.269Z,6.07
2019-02-05T18:31:53.714Z,7.17
2019-02-05T18:34:23.873Z,8.00
2019-02-05T18:36:53.676Z,9.87
2019-02-05T18:39:23.428Z,9.37
2019-02-05T18:41:53.253Z,9.30
2019-02-05T18:44:23.070Z,9.37
2019-02-05T18:46:52.809Z,8.20
2019-02-05T18:49:22.580Z,8.53
2019-02-05T18:51:52.341Z,8.97
2019-02-05T18:54:22.030Z,7.77
2019-02-05T18:56:51.702Z,8.03
2019-02-05T18:59:21.408Z,7.83
2019-02-05T19:01:51.171Z,7.20
2019-02-05T19:04:20.900Z,7.20
2019-02-05T19:06:50.749Z,7.37
2019-02-05T19:09:20.447Z,7.20
2019-02-05T19:11:50.365Z,6.53
2019-02-05T19:14:23.071Z,7.20
2019-02-05T19:16:51.535Z,6.90
2019-02-05T19:19:21.274Z,6.97
2019-02-05T19:21:50.935Z,6.77
2019-02-05T19:24:22.443Z,7.20
2019-02-05T19:26:52.215Z,6.80
2019-02-05T19:29:21.871Z,7.23
2019-02-05T19:31:52.182Z,6.33
2019-02-05T19:34:21.892Z,7.00
2019-02-05T19:36:52.539Z,6.70
2019-02-05T19:39:22.346Z,6.90
2019-02-05T19:41:52.124Z,7.33
2019-02-05T19:44:22.147Z,6.40
2019-02-05T19:46:53.806Z,7.30
2019-02-05T19:49:25.864Z,6.90
2019-02-05T19:51:55.615Z,7.87
2019-02-05T19:54:25.693Z,7.33
2019-02-05T19:56:55.496Z,7.20
2019-02-05T19:59:25.601Z,7.83
2019-02-05T20:01:55.514Z,7.80
2019-02-05T20:04:25.578Z,7.40
2019-02-05T20:06:55.357Z,7.73
2019-02-05T20:09:25.079Z,7.33
2019-02-05T20:11:55.163Z,7.20
2019-02-05T20:14:25.317Z,7.43
2019-02-05T20:16:55.152Z,6.67
2019-02-05T20:19:25.162Z,7.63
2019-02-05T20:21:55.172Z,7.13
2019-02-05T20:24:24.889Z,6.90
2019-02-05T20:26:54.633Z,7.00
2019-02-05T20:29:24.339Z,7.30
2019-02-05T20:31:54.057Z,7.00
2019-02-05T20:34:24.114Z,6.60
2019-02-05T20:36:53.873Z,6.90
2019-02-05T20:39:23.760Z,6.90
2019-02-05T20:41:53.696Z,7.27
2019-02-05T20:44:23.496Z,7.13
2019-02-05T20:46:53.235Z,6.67
2019-02-05T20:49:23.047Z,7.07
2019-02-05T20:51:52.765Z,6.97
2019-02-05T20:54:22.575Z,6.67
2019-02-05T20:56:52.360Z,6.67
2019-02-05T20:59:22.122Z,6.20
2019-02-05T21:01:51.835Z,6.50
2019-02-05T21:04:21.619Z,7.00
2019-02-05T21:06:51.759Z,6.40
2019-02-05T21:09:21.571Z,6.50
2019-02-05T21:11:51.334Z,6.67
2019-02-05T21:14:21.058Z,6.57
2019-02-05T21:16:50.786Z,6.80
2019-02-05T21:19:20.556Z,6.53
2019-02-05T21:21:50.942Z,7.07
2019-02-05T21:24:21.359Z,6.43
2019-02-05T21:26:51.162Z,7.20
2019-02-05T21:29:21.107Z,6.60
2019-02-05T21:31:50.971Z,7.17
2019-02-05T21:34:20.840Z,7.20
2019-02-05T21:36:50.786Z,7.23
2019-02-05T21:39:20.617Z,7.03
2019-02-05T21:41:50.353Z,6.87
2019-02-05T21:44:20.212Z,7.13
2019-02-05T21:46:50.458Z,6.60
2019-02-05T21:49:20.669Z,6.83
2019-02-05T21:51:56.683Z,6.97
2019-02-05T21:54:29.071Z,6.60
2019-02-05T21:56:58.842Z,6.80
2019-02-05T21:59:28.472Z,6.70
2019-02-05T22:01:58.180Z,7.97
2019-02-05T22:04:28.288Z,6.63
2019-02-05T22:06:58.347Z,7.33
2019-02-05T22:09:27.944Z,7.03
2019-02-05T22:11:57.776Z,7.30
2019-02-05T22:14:27.502Z,7.63
2019-02-05T22:16:57.421Z,8.13
2019-02-05T22:19:27.237Z,7.00
2019-02-05T22:21:56.961Z,8.10
2019-02-05T22:24:26.683Z,7.67
2019-02-05T22:26:56.418Z,7.83
2019-02-05T22:29:26.067Z,7.80
2019-02-05T22:31:55.679Z,7.87
2019-02-05T22:34:25.902Z,7.80
2019-02-05T22:36:55.657Z,8.40
2019-02-05T22:39:25.534Z,7.83
2019-02-05T22:41:55.293Z,7.60
2019-02-05T22:44:24.987Z,7.60
2019-02-05T22:46:54.854Z,7.40
2019-02-05T22:49:24.595Z,7.93
2019-02-05T22:51:54.552Z,7.63
2019-02-05T22:54:24.253Z,7.20
2019-02-05T22:56:54.081Z,8.45
2019-02-05T22:59:24.486Z,8.37
2019-02-05T23:01:54.586Z,7.77
2019-02-05T23:04:27.378Z,8.53
2019-02-05T23:07:03.336Z,7.17
2019-02-05T23:09:36.087Z,7.50
2019-02-05T23:12:15.049Z,7.50
2019-02-05T23:14:48.351Z,7.50
2019-02-05T23:17:17.985Z,6.77
2019-02-05T23:19:47.792Z,7.37
2019-02-05T23:22:17.554Z,7.23
2019-02-05T23:24:47.294Z,8.00
2019-02-05T23:27:17.071Z,6.87
2019-02-05T23:29:47.084Z,7.27
2019-02-05T23:32:16.780Z,7.10
2019-02-05T23:34:46.604Z,6.47
2019-02-05T23:37:16.316Z,7.30
2019-02-05T23:39:46.018Z,6.70
2019-02-05T23:42:15.834Z,6.70
2019-02-05T23:44:45.967Z,7.43
2019-02-05T23:47:15.672Z,7.27
2019-02-05T23:49:45.301Z,7.17
2019-02-05T23:52:15.006Z,7.10
2019-02-05T23:54:44.714Z,7.13
2019-02-05T23:57:14.520Z,6.80
2019-02-05T23:59:44.202Z,7.00
